createdAt,value
2023-04-12T00:00:01.542Z,5.77
2023-04-12T00:02:29.598Z,4.17
2023-04-12T00:05:02.824Z,5.37
2023-04-12T00:07:31.097Z,4.57
2023-04-12T00:09:59.323Z,5.50
2023-04-12T00:12:27.348Z,4.67
2023-04-12T00:14:55.373Z,3.83
2023-04-12T00:17:23.363Z,4.30
2023-04-12T00:19:51.384Z,3.67
2023-04-12T00:22:20.888Z,6.03
2023-04-12T00:24:48.892Z,3.70
2023-04-12T00:27:16.828Z,5.17
2023-04-12T00:29:44.857Z,5.30
2023-04-12T00:32:12.804Z,5.27
2023-04-12T00:34:41.182Z,5.03
2023-04-12T00:37:09.782Z,8.20
2023-04-12T00:39:39.424Z,4.93
2023-04-12T00:42:07.559Z,4.70
2023-04-12T00:44:35.687Z,3.93
2023-04-12T00:47:06.623Z,5.67
2023-04-12T00:49:35.178Z,3.70
2023-04-12T00:52:06.277Z,4.40
2023-04-12T00:54:35.225Z,3.40
2023-04-12T00:57:05.031Z,3.20
2023-04-12T00:59:33.592Z,4.53
2023-04-12T01:02:02.033Z,3.63
2023-04-12T01:04:30.187Z,3.57
2023-04-12T01:07:16.195Z,4.63
2023-04-12T01:09:53.981Z,5.17
2023-04-12T01:12:47.905Z,4.13
2023-04-12T01:15:17.658Z,4.30
2023-04-12T01:17:53.021Z,6.73
2023-04-12T01:20:24.784Z,4.43
2023-04-12T01:23:18.965Z,4.57
2023-04-12T01:26:10.438Z,4.90
2023-04-12T01:28:43.322Z,4.10
2023-04-12T01:31:13.882Z,5.57
2023-04-12T01:33:44.339Z,4.03
2023-04-12T01:36:16.492Z,8.33
2023-04-12T01:38:44.946Z,2.70
2023-04-12T01:41:13.681Z,5.17
2023-04-12T01:43:43.913Z,3.17
2023-04-12T01:46:12.933Z,4.47
2023-04-12T01:48:41.110Z,2.70
2023-04-12T01:51:16.029Z,5.17
2023-04-12T01:53:50.418Z,3.33
2023-04-12T01:56:20.232Z,4.03
2023-04-12T01:58:54.368Z,3.73
2023-04-12T02:01:23.767Z,3.10
2023-04-12T02:03:52.765Z,4.07
2023-04-12T02:06:21.620Z,2.73
2023-04-12T02:08:49.964Z,4.07
2023-04-12T02:11:17.975Z,2.90
2023-04-12T02:13:46.137Z,3.40
2023-04-12T02:16:15.555Z,3.67
2023-04-12T02:18:43.717Z,3.03
2023-04-12T02:21:11.763Z,5.37
2023-04-12T02:23:39.737Z,4.80
2023-04-12T02:26:09.220Z,3.03
2023-04-12T02:28:37.906Z,6.43
2023-04-12T02:31:06.712Z,4.43
2023-04-12T02:33:36.144Z,4.47
2023-04-12T02:36:04.388Z,3.87
2023-04-12T02:38:33.432Z,2.43
2023-04-12T02:41:01.438Z,3.80
2023-04-12T02:43:29.404Z,3.83
2023-04-12T02:45:57.408Z,4.90
2023-04-12T02:48:25.450Z,4.30
2023-04-12T02:50:57.426Z,4.33
2023-04-12T02:53:25.471Z,5.87
2023-04-12T02:55:53.471Z,2.97
2023-04-12T02:58:21.402Z,4.20
2023-04-12T03:00:50.054Z,3.87
2023-04-12T03:03:19.147Z,3.83
2023-04-12T03:05:48.004Z,5.27
2023-04-12T03:08:17.312Z,3.70
2023-04-12T03:10:45.414Z,4.27
2023-04-12T03:13:13.463Z,5.23
2023-04-12T03:15:41.993Z,4.73
2023-04-12T03:18:10.081Z,4.50
2023-04-12T03:20:39.088Z,4.13
2023-04-12T03:23:07.092Z,3.73
2023-04-12T03:25:37.130Z,5.90
2023-04-12T03:28:05.842Z,4.43
2023-04-12T03:30:34.073Z,6.40
2023-04-12T03:33:02.106Z,4.00
2023-04-12T03:35:30.342Z,5.63
2023-04-12T03:37:58.357Z,5.40
2023-04-12T03:40:26.689Z,5.73
2023-04-12T03:42:56.087Z,5.47
2023-04-12T03:45:24.072Z,8.03
2023-04-12T03:47:52.274Z,3.93
2023-04-12T03:50:20.696Z,3.97
2023-04-12T03:52:49.163Z,4.83
2023-04-12T03:55:18.128Z,4.93
2023-04-12T03:57:46.427Z,7.10
2023-04-12T04:00:16.894Z,4.63
2023-04-12T04:02:47.247Z,4.37
2023-04-12T04:05:15.895Z,4.83
2023-04-12T04:07:43.936Z,6.33
2023-04-12T04:10:12.364Z,4.27
2023-04-12T04:12:40.473Z,6.80
2023-04-12T04:15:09.484Z,3.93
2023-04-12T04:17:39.059Z,7.17
2023-04-12T04:20:09.052Z,5.47
2023-04-12T04:22:37.034Z,5.03
2023-04-12T04:25:06.310Z,3.80
2023-04-12T04:27:34.435Z,4.70
2023-04-12T04:30:03.557Z,5.40
2023-04-12T04:32:31.825Z,6.30
2023-04-12T04:35:01.450Z,5.87
2023-04-12T04:37:30.456Z,7.27
2023-04-12T04:39:58.861Z,6.33
2023-04-12T04:42:27.104Z,4.93
2023-04-12T04:45:04.583Z,3.50
2023-04-12T04:47:32.635Z,6.40
2023-04-12T04:50:02.783Z,4.47
2023-04-12T04:52:30.991Z,7.37
2023-04-12T04:54:58.959Z,4.77
2023-04-12T04:57:27.622Z,5.43
2023-04-12T04:59:55.917Z,7.33
2023-04-12T05:02:24.098Z,5.60
2023-04-12T05:04:52.695Z,6.73
2023-04-12T05:07:22.081Z,4.57
2023-04-12T05:09:50.036Z,4.10
2023-04-12T05:12:18.041Z,7.33
2023-04-12T05:14:49.796Z,6.20
2023-04-12T05:17:19.817Z,5.27
2023-04-12T05:19:47.807Z,5.57
2023-04-12T05:22:20.188Z,8.63
2023-04-12T05:24:49.685Z,5.03
2023-04-12T05:27:18.984Z,3.63
2023-04-12T05:29:47.543Z,4.40
2023-04-12T05:32:15.579Z,5.80
2023-04-12T05:34:44.122Z,5.17
2023-04-12T05:37:12.238Z,6.77
2023-04-12T05:39:40.479Z,5.50
2023-04-12T05:42:10.203Z,4.80
2023-04-12T05:44:40.219Z,6.27
2023-04-12T05:47:08.206Z,4.33
2023-04-12T05:49:36.161Z,5.03
2023-04-12T05:52:06.504Z,4.87
2023-04-12T05:54:35.617Z,4.90
2023-04-12T05:57:04.384Z,5.40
2023-04-12T05:59:33.767Z,5.63
2023-04-12T06:02:02.208Z,3.33
2023-04-12T06:04:46.349Z,4.80
2023-04-12T06:07:17.851Z,4.90
2023-04-12T06:09:46.124Z,5.40
2023-04-12T06:12:14.111Z,3.90
2023-04-12T06:14:43.558Z,4.53
2023-04-12T06:17:11.571Z,4.37
2023-04-12T06:19:39.730Z,4.50
2023-04-12T06:22:07.697Z,6.03
2023-04-12T06:24:35.696Z,4.87
2023-04-12T06:27:03.814Z,5.57
2023-04-12T06:29:31.916Z,4.67
2023-04-12T06:32:01.843Z,4.97
2023-04-12T06:34:29.833Z,6.67
2023-04-12T06:36:58.400Z,2.60
2023-04-12T06:39:26.411Z,5.70
2023-04-12T06:41:55.435Z,4.33
2023-04-12T06:44:24.230Z,2.60
2023-04-12T06:46:52.367Z,4.60
2023-04-12T06:49:21.927Z,4.77
2023-04-12T06:51:49.888Z,8.07
2023-04-12T06:54:17.968Z,4.43
2023-04-12T06:56:46.333Z,5.23
2023-04-12T06:59:14.732Z,5.93
2023-04-12T07:01:43.468Z,3.97
2023-04-12T07:04:12.745Z,5.53
2023-04-12T07:06:42.632Z,5.00
2023-04-12T07:09:11.265Z,4.43
2023-04-12T07:11:39.294Z,5.30
2023-04-12T07:14:07.282Z,5.03
2023-04-12T07:16:35.556Z,5.43
2023-04-12T07:19:03.800Z,4.80
2023-04-12T07:21:32.281Z,3.73
2023-04-12T07:24:01.724Z,5.97
2023-04-12T07:26:30.195Z,5.60
2023-04-12T07:28:58.541Z,3.23
2023-04-12T07:31:30.458Z,6.30
2023-04-12T07:33:58.888Z,4.20
2023-04-12T07:36:27.482Z,4.60
2023-04-12T07:38:56.512Z,5.27
2023-04-12T07:41:26.350Z,3.30
2023-04-12T07:43:54.707Z,6.03
2023-04-12T07:46:23.167Z,3.67
2023-04-12T07:48:52.285Z,4.67
2023-04-12T07:51:20.264Z,6.57
2023-04-12T07:53:48.749Z,3.63
2023-04-12T07:56:16.732Z,3.57
2023-04-12T07:58:46.369Z,5.50
2023-04-12T08:01:14.391Z,3.93
2023-04-12T08:03:43.905Z,4.33
2023-04-12T08:06:12.163Z,4.07
2023-04-12T08:08:40.562Z,2.90
2023-04-12T08:11:09.157Z,4.93
2023-04-12T08:13:37.386Z,5.07
2023-04-12T08:16:08.433Z,3.63
2023-04-12T08:18:36.640Z,3.40
2023-04-12T08:21:05.072Z,3.20
2023-04-12T08:23:33.504Z,5.37
2023-04-12T08:26:03.954Z,3.17
2023-04-12T08:28:32.895Z,3.77
2023-04-12T08:31:01.002Z,5.30
2023-04-12T08:33:30.488Z,3.73
2023-04-12T08:35:59.465Z,2.33
2023-04-12T08:38:41.327Z,3.17
2023-04-12T08:41:13.476Z,3.57
2023-04-12T08:43:45.875Z,4.00
2023-04-12T08:46:16.248Z,3.37
2023-04-12T08:48:47.486Z,4.10
2023-04-12T08:51:17.219Z,4.90
2023-04-12T08:53:45.674Z,3.50
2023-04-12T08:56:14.863Z,4.00
2023-04-12T08:58:49.159Z,4.57
2023-04-12T09:01:18.644Z,5.17
2023-04-12T09:03:48.248Z,3.63
2023-04-12T09:06:16.393Z,5.40
2023-04-12T09:08:55.361Z,4.10
2023-04-12T09:11:25.802Z,4.13
2023-04-12T09:13:54.718Z,2.37
2023-04-12T09:16:36.547Z,2.50
2023-04-12T09:19:06.270Z,2.77
2023-04-12T09:21:35.185Z,3.87
2023-04-12T09:24:12.421Z,2.40
2023-04-12T09:26:41.541Z,2.70
2023-04-12T09:29:24.869Z,3.40
2023-04-12T09:31:57.813Z,4.93
2023-04-12T09:34:27.997Z,3.70
2023-04-12T09:36:56.866Z,4.40
2023-04-12T09:39:35.257Z,3.73
2023-04-12T09:42:14.933Z,4.13
2023-04-12T09:44:54.213Z,3.33
2023-04-12T09:47:22.420Z,3.67
2023-04-12T09:49:52.233Z,2.30
2023-04-12T09:52:20.407Z,3.90
2023-04-12T09:54:49.612Z,4.37
2023-04-12T09:57:19.421Z,3.53
2023-04-12T09:59:50.121Z,2.57
2023-04-12T10:02:20.168Z,2.67
2023-04-12T10:04:51.620Z,2.90
2023-04-12T10:07:20.674Z,4.10
2023-04-12T10:09:49.198Z,3.50
2023-04-12T10:12:17.934Z,1.93
2023-04-12T10:14:47.552Z,1.43
2023-04-12T10:17:15.738Z,4.00
2023-04-12T10:19:45.178Z,1.67
2023-04-12T10:22:15.575Z,3.23
2023-04-12T10:24:44.539Z,1.77
2023-04-12T10:27:16.065Z,2.10
2023-04-12T10:29:44.084Z,2.10
2023-04-12T10:32:23.300Z,2.10
2023-04-12T10:34:56.178Z,3.27
2023-04-12T10:38:03.460Z,2.13
2023-04-12T10:40:32.777Z,2.03
2023-04-12T10:43:28.764Z,3.77
2023-04-12T10:45:57.569Z,1.80
2023-04-12T10:48:32.043Z,1.20
2023-04-12T10:51:22.981Z,2.30
2023-04-12T10:53:52.846Z,1.73
2023-04-12T10:56:43.810Z,4.27
2023-04-12T10:59:12.955Z,2.37
2023-04-12T11:01:42.232Z,1.73
2023-04-12T11:04:16.701Z,1.60
2023-04-12T11:06:50.431Z,2.77
2023-04-12T11:09:25.766Z,2.13
2023-04-12T11:11:59.053Z,2.97
2023-04-12T11:14:38.683Z,1.97
2023-04-12T11:17:26.136Z,1.67
2023-04-12T11:19:57.432Z,1.60
2023-04-12T11:22:27.308Z,1.60
2023-04-12T11:24:58.525Z,1.90
2023-04-12T11:27:27.998Z,1.70
2023-04-12T11:29:57.270Z,2.63
2023-04-12T11:32:27.694Z,2.53
2023-04-12T11:34:58.161Z,1.63
2023-04-12T11:37:27.520Z,1.23
2023-04-12T11:39:58.798Z,1.40
2023-04-12T11:42:29.134Z,2.90
2023-04-12T11:45:03.170Z,1.63
2023-04-12T11:47:34.909Z,1.77
2023-04-12T11:50:03.403Z,2.43
2023-04-12T11:52:32.688Z,1.50
2023-04-12T11:55:04.990Z,1.90
2023-04-12T11:57:33.450Z,1.50
2023-04-12T12:00:02.285Z,1.20
2023-04-12T12:02:41.263Z,2.53
2023-04-12T12:05:19.124Z,2.10
2023-04-12T12:07:47.553Z,4.13
2023-04-12T12:10:32.477Z,2.80
2023-04-12T12:13:12.526Z,2.93
2023-04-12T12:15:40.715Z,2.27
2023-04-12T12:18:09.326Z,1.83
2023-04-12T12:20:42.710Z,2.40
2023-04-12T12:23:10.973Z,1.63
2023-04-12T12:25:47.420Z,2.80
2023-04-12T12:28:15.705Z,1.67
2023-04-12T12:30:44.017Z,1.30
2023-04-12T12:33:13.980Z,1.37
2023-04-12T12:35:42.106Z,2.00
2023-04-12T12:38:12.340Z,1.43
2023-04-12T12:40:42.328Z,1.30
2023-04-12T12:43:20.421Z,3.03
2023-04-12T12:45:48.675Z,5.23
2023-04-12T12:48:19.560Z,4.97
2023-04-12T12:50:47.649Z,3.13
2023-04-12T12:53:15.734Z,3.80
2023-04-12T12:55:45.188Z,4.77
2023-04-12T12:58:13.228Z,2.07
2023-04-12T13:00:41.745Z,2.07
2023-04-12T13:03:10.023Z,1.17
2023-04-12T13:05:38.529Z,1.77
2023-04-12T13:08:06.740Z,4.23
2023-04-12T13:10:34.816Z,1.27
2023-04-12T13:13:04.583Z,1.67
2023-04-12T13:15:32.735Z,1.40
2023-04-12T13:18:00.751Z,1.67
2023-04-12T13:20:28.834Z,1.97
2023-04-12T13:22:56.937Z,1.20
2023-04-12T13:25:25.163Z,3.30
2023-04-12T13:27:53.596Z,1.93
2023-04-12T13:30:23.017Z,1.33
2023-04-12T13:32:51.454Z,1.47
2023-04-12T13:35:19.575Z,2.87
2023-04-12T13:37:48.185Z,1.43
2023-04-12T13:40:16.202Z,2.33
2023-04-12T13:42:44.282Z,2.07
2023-04-12T13:45:13.018Z,1.87
2023-04-12T13:47:42.534Z,1.43
2023-04-12T13:50:11.603Z,2.13
2023-04-12T13:52:40.136Z,1.60
2023-04-12T13:55:09.222Z,1.43
2023-04-12T13:57:37.294Z,1.73
2023-04-12T14:00:06.263Z,2.23
2023-04-12T14:02:35.151Z,1.87
2023-04-12T14:05:04.897Z,2.30
2023-04-12T14:07:33.319Z,3.27
2023-04-12T14:10:01.403Z,2.37
2023-04-12T14:12:29.545Z,3.40
2023-04-12T14:14:57.940Z,2.83
2023-04-12T14:17:32.211Z,3.17
2023-04-12T14:20:00.834Z,2.17
2023-04-12T14:22:30.263Z,1.57
2023-04-12T14:24:58.420Z,1.97
2023-04-12T14:27:26.496Z,1.60
2023-04-12T14:29:54.478Z,1.83
2023-04-12T14:32:22.573Z,3.40
2023-04-12T14:34:50.729Z,2.07
2023-04-12T14:37:19.604Z,2.40
2023-04-12T14:39:49.019Z,2.47
2023-04-12T14:42:17.072Z,2.63
2023-04-12T14:44:45.117Z,1.37
2023-04-12T14:47:13.138Z,2.80
2023-04-12T14:49:44.344Z,1.50
2023-04-12T14:52:12.496Z,1.93
2023-04-12T14:54:40.829Z,4.57
2023-04-12T14:57:11.224Z,1.70
2023-04-12T14:59:39.329Z,3.17
2023-04-12T15:02:07.689Z,3.23
2023-04-12T15:04:36.012Z,1.40
2023-04-12T15:07:04.101Z,2.17
2023-04-12T15:09:32.079Z,3.17
2023-04-12T15:12:01.833Z,4.53
2023-04-12T15:14:31.906Z,2.27
2023-04-12T15:16:59.966Z,2.30
2023-04-12T15:19:28.114Z,2.73
2023-04-12T15:21:56.526Z,2.87
2023-04-12T15:24:25.717Z,2.27
2023-04-12T15:26:55.668Z,1.50
2023-04-12T15:29:24.569Z,1.50
2023-04-12T15:31:56.015Z,2.40
2023-04-12T15:34:25.255Z,2.43
2023-04-12T15:36:53.538Z,2.80
2023-04-12T15:39:22.570Z,1.87
2023-04-12T15:41:50.767Z,2.37
2023-04-12T15:44:18.794Z,2.70
2023-04-12T15:46:56.246Z,4.07
2023-04-12T15:49:35.593Z,2.83
2023-04-12T15:52:04.616Z,4.40
2023-04-12T15:54:32.747Z,2.33
2023-04-12T15:57:02.636Z,3.13
2023-04-12T15:59:30.960Z,1.93
2023-04-12T16:01:59.417Z,2.00
2023-04-12T16:04:29.186Z,3.07
2023-04-12T16:07:01.964Z,4.20
2023-04-12T16:09:30.086Z,2.17
2023-04-12T16:11:58.208Z,1.93
2023-04-12T16:14:26.666Z,3.60
2023-04-12T16:16:54.803Z,2.63
2023-04-12T16:19:23.177Z,1.40
2023-04-12T16:21:51.257Z,2.50
2023-04-12T16:24:20.716Z,3.17
2023-04-12T16:26:48.933Z,2.63
2023-04-12T16:29:16.956Z,3.20
2023-04-12T16:31:45.243Z,7.40
2023-04-12T16:34:13.255Z,3.07
2023-04-12T16:36:43.014Z,3.63
2023-04-12T16:39:11.643Z,2.00
2023-04-12T16:41:41.458Z,3.47
2023-04-12T16:44:10.239Z,4.50
2023-04-12T16:46:38.786Z,3.30
2023-04-12T16:49:06.905Z,2.47
2023-04-12T16:54:23.694Z,4.10
2023-04-12T16:56:53.072Z,5.20
2023-04-12T16:59:21.504Z,5.00
2023-04-12T17:01:49.826Z,3.80
2023-04-12T17:04:18.843Z,4.83
2023-04-12T17:06:47.064Z,4.73
2023-04-12T17:09:15.069Z,5.17
2023-04-12T17:11:43.381Z,3.30
2023-04-12T17:14:13.985Z,5.37
2023-04-12T17:16:42.467Z,4.30
2023-04-12T17:19:10.800Z,4.10
2023-04-12T17:21:42.093Z,3.40
2023-04-12T17:24:10.854Z,3.60
2023-04-12T17:26:41.249Z,2.00
2023-04-12T17:29:09.348Z,2.90
2023-04-12T17:31:39.404Z,2.07
2023-04-12T17:34:08.010Z,2.83
2023-04-12T17:36:36.153Z,2.57
2023-04-12T17:39:04.871Z,2.87
2023-04-12T17:41:33.057Z,2.13
2023-04-12T17:44:01.102Z,1.90
2023-04-12T17:46:29.336Z,5.23
2023-04-12T17:48:59.890Z,2.70
2023-04-12T17:51:29.639Z,3.73
2023-04-12T17:53:58.420Z,3.13
2023-04-12T17:56:27.323Z,2.93
2023-04-12T17:58:55.697Z,2.87
2023-04-12T18:01:23.994Z,2.50
2023-04-12T18:03:53.051Z,2.27
2023-04-12T18:06:23.817Z,1.77
2023-04-12T18:08:53.353Z,3.83
2023-04-12T18:11:21.484Z,3.03
2023-04-12T18:13:49.524Z,2.20
2023-04-12T18:16:17.986Z,3.23
2023-04-12T18:18:46.119Z,3.17
2023-04-12T18:21:14.761Z,4.60
2023-04-12T18:23:44.300Z,2.60
2023-04-12T18:26:12.366Z,2.83
2023-04-12T18:28:41.256Z,1.60
2023-04-12T18:31:09.378Z,1.23
2023-04-12T18:33:37.449Z,1.70
2023-04-12T18:36:06.065Z,2.13
2023-04-12T18:38:35.599Z,1.70
2023-04-12T18:41:06.260Z,1.47
2023-04-12T18:43:34.324Z,1.67
2023-04-12T18:46:02.396Z,1.97
2023-04-12T18:48:31.455Z,2.83
2023-04-12T18:51:00.025Z,6.93
2023-04-12T18:53:28.750Z,4.70
2023-04-12T18:55:57.066Z,4.50
2023-04-12T18:58:27.040Z,4.17
2023-04-12T19:01:01.203Z,2.60
2023-04-12T19:03:30.156Z,1.20
2023-04-12T19:05:58.985Z,2.97
2023-04-12T19:08:28.840Z,2.83
2023-04-12T19:10:58.252Z,2.30
2023-04-12T19:13:27.993Z,2.30
2023-04-12T19:15:56.896Z,1.67
2023-04-12T19:18:26.855Z,1.53
2023-04-12T19:20:55.614Z,3.03
2023-04-12T19:23:24.412Z,2.27
2023-04-12T19:25:53.146Z,1.47
2023-04-12T19:28:21.582Z,2.60
2023-04-12T19:30:51.181Z,2.80
2023-04-12T19:33:19.701Z,2.00
2023-04-12T19:35:48.165Z,1.87
2023-04-12T19:38:16.508Z,1.43
2023-04-12T19:40:44.938Z,2.37
2023-04-12T19:43:14.213Z,2.83
2023-04-12T19:45:42.705Z,2.87
2023-04-12T19:48:13.088Z,3.07
2023-04-12T19:50:41.664Z,2.37
2023-04-12T19:53:12.496Z,1.83
2023-04-12T19:55:41.178Z,2.50
2023-04-12T19:58:09.254Z,3.20
2023-04-12T20:00:39.325Z,3.57
2023-04-12T20:03:08.049Z,5.77
2023-04-12T20:05:38.015Z,3.53
2023-04-12T20:08:06.209Z,6.77
2023-04-12T20:10:34.355Z,2.17
2023-04-12T20:13:04.180Z,5.63
2023-04-12T20:15:32.256Z,1.97
2023-04-12T20:18:02.989Z,3.00
2023-04-12T20:20:32.306Z,1.97
2023-04-12T20:23:01.729Z,2.77
2023-04-12T20:25:29.831Z,1.73
2023-04-12T20:27:58.634Z,1.83
2023-04-12T20:30:26.915Z,2.73
2023-04-12T20:32:55.195Z,4.53
2023-04-12T20:35:23.721Z,1.00
2023-04-12T20:37:51.845Z,1.23
2023-04-12T20:40:23.329Z,2.03
2023-04-12T20:42:51.846Z,1.97
2023-04-12T20:45:21.798Z,1.00
2023-04-12T20:47:49.941Z,0.80
2023-04-12T20:50:18.784Z,2.53
2023-04-12T20:52:48.591Z,1.17
2023-04-12T20:55:20.505Z,2.27
2023-04-12T20:57:50.487Z,3.53
2023-04-12T21:00:19.292Z,1.77
2023-04-12T21:02:48.635Z,1.90
2023-04-12T21:05:17.219Z,2.40
2023-04-12T21:07:47.106Z,1.70
2023-04-12T21:10:16.219Z,1.40
2023-04-12T21:12:45.032Z,2.63
2023-04-12T21:15:17.894Z,3.70
2023-04-12T21:17:46.421Z,1.23
2023-04-12T21:20:16.152Z,1.90
2023-04-12T21:22:46.887Z,2.93
2023-04-12T21:25:16.896Z,1.20
2023-04-12T21:27:50.588Z,1.97
2023-04-12T21:30:21.296Z,1.73
2023-04-12T21:32:49.366Z,1.13
2023-04-12T21:35:18.269Z,2.13
2023-04-12T21:37:46.387Z,4.50
2023-04-12T21:40:18.328Z,2.63
2023-04-12T21:42:46.368Z,2.40
2023-04-12T21:45:14.689Z,1.90
2023-04-12T21:47:44.779Z,1.10
2023-04-12T21:50:14.603Z,1.77
2023-04-12T21:52:44.307Z,1.17
2023-04-12T21:55:12.662Z,2.27
2023-04-12T21:57:40.858Z,1.63
2023-04-12T22:00:11.394Z,2.47
2023-04-12T22:02:39.697Z,1.47
2023-04-12T22:05:14.102Z,2.13
2023-04-12T22:07:42.068Z,3.30
2023-04-12T22:10:11.902Z,2.17
2023-04-12T22:12:40.348Z,1.90
2023-04-12T22:15:11.736Z,2.33
2023-04-12T22:17:44.640Z,2.43
2023-04-12T22:20:14.476Z,1.90
2023-04-12T22:22:42.707Z,2.43
2023-04-12T22:25:15.157Z,2.33
2023-04-12T22:27:46.790Z,1.67
2023-04-12T22:30:15.774Z,1.37
2023-04-12T22:32:43.893Z,0.83
2023-04-12T22:35:13.425Z,1.30
2023-04-12T22:37:43.123Z,1.00
2023-04-12T22:40:13.951Z,1.63
2023-04-12T22:42:46.844Z,2.33
2023-04-12T22:45:15.733Z,1.30
2023-04-12T22:47:44.023Z,0.80
2023-04-12T22:50:15.404Z,1.50
2023-04-12T22:52:43.686Z,1.10
2023-04-12T22:55:13.868Z,3.63
2023-04-12T22:57:41.957Z,2.07
2023-04-12T23:00:15.828Z,1.80
2023-04-12T23:02:45.222Z,1.50
2023-04-12T23:05:14.971Z,1.30
2023-04-12T23:07:43.446Z,1.07
2023-04-12T23:10:12.196Z,1.73
2023-04-12T23:12:41.667Z,1.87
2023-04-12T23:15:11.049Z,1.10
2023-04-12T23:17:39.178Z,1.43
2023-04-12T23:20:13.268Z,1.60
2023-04-12T23:23:02.309Z,1.13
2023-04-12T23:25:46.278Z,1.20
2023-04-12T23:28:19.309Z,1.67
2023-04-12T23:30:49.690Z,2.47
2023-04-12T23:33:19.564Z,2.83
2023-04-12T23:35:49.706Z,1.93
2023-04-12T23:38:27.149Z,2.37
2023-04-12T23:40:55.212Z,1.33
2023-04-12T23:43:24.485Z,1.30
2023-04-12T23:45:53.812Z,2.10
2023-04-12T23:48:21.997Z,1.23
2023-04-12T23:50:50.221Z,1.30
2023-04-12T23:53:20.976Z,1.70
2023-04-12T23:55:51.013Z,1.97
2023-04-12T23:58:20.434Z,2.20
